sensor_id;sensor_type;location;lat;lon;timestamp;pressure;altitude;pressure_sealevel;temperature;humidity
19831;BME280;10076;52.008;4.708;2023-04-21T00:00:57;101588.31;;;11.38;100.00
19831;BME280;10076;52.008;4.708;2023-04-21T00:03:26;101588.22;;;11.40;100.00
19831;BME280;10076;52.008;4.708;2023-04-21T00:05:54;101594.09;;;11.31;100.00
19831;BME280;10076;52.008;4.708;2023-04-21T00:08:20;101590.31;;;11.35;100.00
19831;BME280;10076;52.008;4.708;2023-04-21T00:10:45;101587.88;;;11.32;100.00
19831;BME280;10076;52.008;4.708;2023-04-21T00:13:11;101595.78;;;11.18;100.00
19831;BME280;10076;52.008;4.708;2023-04-21T00:15:36;101607.84;;;11.22;100.00
19831;BME280;10076;52.008;4.708;2023-04-21T00:18:02;101607.75;;;11.09;100.00
19831;BME280;10076;52.008;4.708;2023-04-21T00:20:28;101606.25;;;11.19;100.00
19831;BME280;10076;52.008;4.708;2023-04-21T00:22:54;101609.63;;;11.07;100.00
19831;BME280;10076;52.008;4.708;2023-04-21T00:25:21;101607.28;;;11.03;100.00
19831;BME280;10076;52.008;4.708;2023-04-21T00:27:46;101604.53;;;11.18;100.00
19831;BME280;10076;52.008;4.708;2023-04-21T00:30:11;101604.84;;;11.14;100.00
19831;BME280;10076;52.008;4.708;2023-04-21T00:32:37;101597.66;;;11.16;100.00
19831;BME280;10076;52.008;4.708;2023-04-21T00:35:02;101589.63;;;11.03;100.00
19831;BME280;10076;52.008;4.708;2023-04-21T00:37:28;101593.31;;;11.15;100.00
19831;BME280;10076;52.008;4.708;2023-04-21T00:39:53;101582.75;;;11.01;100.00
19831;BME280;10076;52.008;4.708;2023-04-21T00:42:19;101562.34;;;10.89;100.00
19831;BME280;10076;52.008;4.708;2023-04-21T00:44:44;101556.69;;;10.95;100.00
19831;BME280;10076;52.008;4.708;2023-04-21T00:47:10;101561.78;;;10.98;100.00
19831;BME280;10076;52.008;4.708;2023-04-21T00:49:35;101555.25;;;10.90;100.00
19831;BME280;10076;52.008;4.708;2023-04-21T00:52:03;101555.34;;;10.74;100.00
19831;BME280;10076;52.008;4.708;2023-04-21T00:54:29;101551.03;;;11.01;100.00
19831;BME280;10076;52.008;4.708;2023-04-21T00:56:55;101546.69;;;11.00;100.00
19831;BME280;10076;52.008;4.708;2023-04-21T00:59:22;101546.50;;;10.89;100.00
19831;BME280;10076;52.008;4.708;2023-04-21T01:01:47;101548.56;;;10.84;100.00
19831;BME280;10076;52.008;4.708;2023-04-21T01:04:13;101546.13;;;10.95;100.00
19831;BME280;10076;52.008;4.708;2023-04-21T01:06:39;101536.88;;;11.02;100.00
19831;BME280;10076;52.008;4.708;2023-04-21T01:09:05;101546.78;;;10.99;100.00
19831;BME280;10076;52.008;4.708;2023-04-21T01:11:30;101548.75;;;10.95;100.00
19831;BME280;10076;52.008;4.708;2023-04-21T01:13:56;101552.34;;;10.94;100.00
19831;BME280;10076;52.008;4.708;2023-04-21T01:16:22;101545.06;;;10.98;100.00
19831;BME280;10076;52.008;4.708;2023-04-21T01:18:48;101549.50;;;10.83;100.00
19831;BME280;10076;52.008;4.708;2023-04-21T01:21:15;101554.31;;;10.91;100.00
19831;BME280;10076;52.008;4.708;2023-04-21T01:23:40;101548.88;;;10.94;100.00
19831;BME280;10076;52.008;4.708;2023-04-21T01:26:06;101550.47;;;10.96;100.00
19831;BME280;10076;52.008;4.708;2023-04-21T01:28:31;101556.41;;;11.00;100.00
19831;BME280;10076;52.008;4.708;2023-04-21T01:30:57;101551.41;;;10.95;100.00
19831;BME280;10076;52.008;4.708;2023-04-21T01:33:22;101541.69;;;10.82;100.00
19831;BME280;10076;52.008;4.708;2023-04-21T01:35:48;101548.28;;;10.89;100.00
19831;BME280;10076;52.008;4.708;2023-04-21T01:38:14;101540.34;;;10.75;100.00
19831;BME280;10076;52.008;4.708;2023-04-21T01:40:43;101548.19;;;10.90;100.00
19831;BME280;10076;52.008;4.708;2023-04-21T01:43:10;101542.25;;;10.87;100.00
19831;BME280;10076;52.008;4.708;2023-04-21T01:45:36;101533.84;;;10.94;100.00
19831;BME280;10076;52.008;4.708;2023-04-21T01:48:01;101533.38;;;10.88;100.00
19831;BME280;10076;52.008;4.708;2023-04-21T01:50:27;101534.03;;;10.91;100.00
19831;BME280;10076;52.008;4.708;2023-04-21T01:52:52;101508.34;;;10.93;100.00
19831;BME280;10076;52.008;4.708;2023-04-21T01:55:17;101513.66;;;10.93;100.00
19831;BME280;10076;52.008;4.708;2023-04-21T01:57:43;101517.22;;;11.06;100.00
19831;BME280;10076;52.008;4.708;2023-04-21T02:00:08;101505.91;;;10.90;100.00
19831;BME280;10076;52.008;4.708;2023-04-21T02:02:34;101506.38;;;10.97;100.00
19831;BME280;10076;52.008;4.708;2023-04-21T02:04:59;101500.06;;;10.99;100.00
19831;BME280;10076;52.008;4.708;2023-04-21T02:07:24;101504.22;;;10.89;100.00
19831;BME280;10076;52.008;4.708;2023-04-21T02:09:50;101501.59;;;11.03;100.00
19831;BME280;10076;52.008;4.708;2023-04-21T02:12:15;101505.16;;;11.02;100.00
19831;BME280;10076;52.008;4.708;2023-04-21T02:14:40;101505.91;;;11.04;100.00
19831;BME280;10076;52.008;4.708;2023-04-21T02:17:06;101506.94;;;11.01;100.00
19831;BME280;10076;52.008;4.708;2023-04-21T02:19:31;101497.97;;;11.04;100.00
19831;BME280;10076;52.008;4.708;2023-04-21T02:21:56;101505.84;;;11.05;100.00
19831;BME280;10076;52.008;4.708;2023-04-21T02:24:22;101495.81;;;10.97;100.00
19831;BME280;10076;52.008;4.708;2023-04-21T02:26:47;101506.28;;;10.98;100.00
19831;BME280;10076;52.008;4.708;2023-04-21T02:29:12;101499.88;;;11.02;100.00
19831;BME280;10076;52.008;4.708;2023-04-21T02:31:38;101494.03;;;10.97;100.00
19831;BME280;10076;52.008;4.708;2023-04-21T02:34:03;101489.88;;;10.93;100.00
19831;BME280;10076;52.008;4.708;2023-04-21T02:36:28;101495.44;;;10.89;100.00
19831;BME280;10076;52.008;4.708;2023-04-21T02:38:54;101485.25;;;10.97;100.00
19831;BME280;10076;52.008;4.708;2023-04-21T02:41:20;101473.47;;;11.02;100.00
19831;BME280;10076;52.008;4.708;2023-04-21T02:43:45;101472.22;;;11.07;100.00
19831;BME280;10076;52.008;4.708;2023-04-21T02:46:10;101467.69;;;10.96;100.00
19831;BME280;10076;52.008;4.708;2023-04-21T02:48:36;101478.25;;;10.96;100.00
19831;BME280;10076;52.008;4.708;2023-04-21T02:51:01;101487.59;;;11.01;100.00
19831;BME280;10076;52.008;4.708;2023-04-21T02:53:28;101482.31;;;11.01;100.00
19831;BME280;10076;52.008;4.708;2023-04-21T02:55:53;101465.41;;;10.90;100.00
19831;BME280;10076;52.008;4.708;2023-04-21T02:58:19;101466.28;;;10.90;100.00
19831;BME280;10076;52.008;4.708;2023-04-21T03:00:45;101458.81;;;10.97;100.00
19831;BME280;10076;52.008;4.708;2023-04-21T03:03:10;101456.09;;;10.84;100.00
19831;BME280;10076;52.008;4.708;2023-04-21T03:05:35;101464.84;;;10.85;100.00
19831;BME280;10076;52.008;4.708;2023-04-21T03:08:01;101471.00;;;10.99;100.00
19831;BME280;10076;52.008;4.708;2023-04-21T03:10:26;101476.16;;;11.00;100.00
19831;BME280;10076;52.008;4.708;2023-04-21T03:12:51;101477.78;;;11.17;100.00
19831;BME280;10076;52.008;4.708;2023-04-21T03:15:18;101481.19;;;11.05;100.00
19831;BME280;10076;52.008;4.708;2023-04-21T03:17:43;101471.47;;;11.05;100.00
19831;BME280;10076;52.008;4.708;2023-04-21T03:20:09;101457.13;;;10.96;100.00
19831;BME280;10076;52.008;4.708;2023-04-21T03:22:36;101458.63;;;10.86;100.00
19831;BME280;10076;52.008;4.708;2023-04-21T03:25:02;101462.13;;;10.86;100.00
19831;BME280;10076;52.008;4.708;2023-04-21T03:27:29;101461.94;;;10.75;100.00
19831;BME280;10076;52.008;4.708;2023-04-21T03:29:54;101457.78;;;10.71;100.00
19831;BME280;10076;52.008;4.708;2023-04-21T03:32:19;101445.16;;;10.76;100.00
19831;BME280;10076;52.008;4.708;2023-04-21T03:34:45;101436.25;;;10.63;100.00
19831;BME280;10076;52.008;4.708;2023-04-21T03:37:10;101438.38;;;10.72;100.00
19831;BME280;10076;52.008;4.708;2023-04-21T03:39:35;101434.13;;;10.70;100.00
19831;BME280;10076;52.008;4.708;2023-04-21T03:42:00;101434.13;;;10.70;100.00
19831;BME280;10076;52.008;4.708;2023-04-21T03:44:26;101425.59;;;10.79;100.00
19831;BME280;10076;52.008;4.708;2023-04-21T03:46:53;101430.41;;;10.86;100.00
19831;BME280;10076;52.008;4.708;2023-04-21T03:49:19;101428.63;;;10.87;100.00
19831;BME280;10076;52.008;4.708;2023-04-21T03:51:44;101430.22;;;10.75;100.00
19831;BME280;10076;52.008;4.708;2023-04-21T03:54:09;101427.41;;;10.78;100.00
19831;BME280;10076;52.008;4.708;2023-04-21T03:56:35;101426.28;;;10.82;100.00
19831;BME280;10076;52.008;4.708;2023-04-21T03:59:00;101410.25;;;10.85;100.00
19831;BME280;10076;52.008;4.708;2023-04-21T04:01:25;101417.63;;;10.80;100.00
19831;BME280;10076;52.008;4.708;2023-04-21T04:03:51;101417.03;;;10.89;100.00
19831;BME280;10076;52.008;4.708;2023-04-21T04:06:16;101420.88;;;10.84;100.00
19831;BME280;10076;52.008;4.708;2023-04-21T04:08:41;101409.09;;;10.89;100.00
19831;BME280;10076;52.008;4.708;2023-04-21T04:11:07;101410.88;;;11.02;100.00
19831;BME280;10076;52.008;4.708;2023-04-21T04:13:32;101421.16;;;10.93;100.00
19831;BME280;10076;52.008;4.708;2023-04-21T04:15:57;101427.97;;;10.97;100.00
19831;BME280;10076;52.008;4.708;2023-04-21T04:18:23;101424.84;;;10.91;100.00
19831;BME280;10076;52.008;4.708;2023-04-21T04:20:48;101420.31;;;10.79;100.00
19831;BME280;10076;52.008;4.708;2023-04-21T04:23:14;101410.97;;;10.87;100.00
19831;BME280;10076;52.008;4.708;2023-04-21T04:25:39;101409.38;;;10.85;100.00
19831;BME280;10076;52.008;4.708;2023-04-21T04:28:05;101416.66;;;10.81;100.00
19831;BME280;10076;52.008;4.708;2023-04-21T04:30:32;101417.41;;;10.83;100.00
19831;BME280;10076;52.008;4.708;2023-04-21T04:32:57;101427.78;;;10.86;100.00
19831;BME280;10076;52.008;4.708;2023-04-21T04:35:23;101412.31;;;10.94;100.00
19831;BME280;10076;52.008;4.708;2023-04-21T04:37:48;101412.50;;;10.91;100.00
19831;BME280;10076;52.008;4.708;2023-04-21T04:40:14;101413.16;;;10.81;100.00
19831;BME280;10076;52.008;4.708;2023-04-21T04:42:40;101417.50;;;10.82;100.00
19831;BME280;10076;52.008;4.708;2023-04-21T04:45:06;101414.19;;;10.92;100.00
19831;BME280;10076;52.008;4.708;2023-04-21T04:47:38;101412.34;;;10.80;100.00
19831;BME280;10076;52.008;4.708;2023-04-21T04:50:04;101420.25;;;10.80;100.00
19831;BME280;10076;52.008;4.708;2023-04-21T04:52:30;101420.81;;;10.85;100.00
19831;BME280;10076;52.008;4.708;2023-04-21T04:54:55;101435.91;;;10.97;100.00
19831;BME280;10076;52.008;4.708;2023-04-21T04:57:21;101440.16;;;10.86;100.00
19831;BME280;10076;52.008;4.708;2023-04-21T04:59:46;101435.31;;;10.92;100.00
19831;BME280;10076;52.008;4.708;2023-04-21T05:02:11;101432.00;;;11.02;100.00
19831;BME280;10076;52.008;4.708;2023-04-21T05:04:37;101429.84;;;10.95;100.00
19831;BME280;10076;52.008;4.708;2023-04-21T05:07:02;101429.75;;;10.97;100.00
19831;BME280;10076;52.008;4.708;2023-04-21T05:09:28;101431.44;;;11.11;100.00
19831;BME280;10076;52.008;4.708;2023-04-21T05:11:53;101429.34;;;11.16;100.00
19831;BME280;10076;52.008;4.708;2023-04-21T05:14:18;101436.00;;;11.36;100.00
19831;BME280;10076;52.008;4.708;2023-04-21T05:16:43;101420.53;;;11.30;100.00
19831;BME280;10076;52.008;4.708;2023-04-21T05:19:09;101423.19;;;11.30;100.00
19831;BME280;10076;52.008;4.708;2023-04-21T05:21:34;101426.31;;;11.22;100.00
19831;BME280;10076;52.008;4.708;2023-04-21T05:24:00;101426.16;;;11.11;100.00
19831;BME280;10076;52.008;4.708;2023-04-21T05:26:26;101427.72;;;11.28;100.00
19831;BME280;10076;52.008;4.708;2023-04-21T05:28:53;101432.50;;;11.35;100.00
19831;BME280;10076;52.008;4.708;2023-04-21T05:31:18;101433.91;;;11.41;100.00
19831;BME280;10076;52.008;4.708;2023-04-21T05:33:43;101441.94;;;11.39;100.00
19831;BME280;10076;52.008;4.708;2023-04-21T05:36:09;101435.50;;;11.57;100.00
19831;BME280;10076;52.008;4.708;2023-04-21T05:38:35;101442.91;;;11.52;100.00
19831;BME280;10076;52.008;4.708;2023-04-21T05:41:02;101441.75;;;11.56;100.00
19831;BME280;10076;52.008;4.708;2023-04-21T05:43:27;101442.16;;;11.76;100.00
19831;BME280;10076;52.008;4.708;2023-04-21T05:45:52;101443.13;;;11.62;100.00
19831;BME280;10076;52.008;4.708;2023-04-21T05:48:18;101441.47;;;11.61;100.00
19831;BME280;10076;52.008;4.708;2023-04-21T05:50:43;101443.78;;;11.65;100.00
19831;BME280;10076;52.008;4.708;2023-04-21T05:53:09;101447.44;;;11.76;100.00
19831;BME280;10076;52.008;4.708;2023-04-21T05:55:35;101454.69;;;11.61;100.00
19831;BME280;10076;52.008;4.708;2023-04-21T05:58:00;101460.31;;;11.69;100.00
19831;BME280;10076;52.008;4.708;2023-04-21T06:00:26;101459.47;;;11.68;100.00
19831;BME280;10076;52.008;4.708;2023-04-21T06:02:51;101463.31;;;11.76;100.00
19831;BME280;10076;52.008;4.708;2023-04-21T06:05:17;101453.25;;;11.81;100.00
19831;BME280;10076;52.008;4.708;2023-04-21T06:07:42;101458.44;;;11.83;100.00
19831;BME280;10076;52.008;4.708;2023-04-21T06:10:09;101453.88;;;12.11;100.00
19831;BME280;10076;52.008;4.708;2023-04-21T06:12:35;101452.59;;;12.04;100.00
19831;BME280;10076;52.008;4.708;2023-04-21T06:15:00;101456.00;;;12.06;100.00
19831;BME280;10076;52.008;4.708;2023-04-21T06:17:26;101457.94;;;12.29;100.00
19831;BME280;10076;52.008;4.708;2023-04-21T06:19:51;101456.00;;;12.19;100.00
19831;BME280;10076;52.008;4.708;2023-04-21T06:22:21;101459.41;;;12.21;100.00
19831;BME280;10076;52.008;4.708;2023-04-21T06:24:46;101460.06;;;12.24;100.00
19831;BME280;10076;52.008;4.708;2023-04-21T06:27:12;101461.00;;;12.48;100.00
19831;BME280;10076;52.008;4.708;2023-04-21T06:29:37;101462.00;;;12.47;100.00
19831;BME280;10076;52.008;4.708;2023-04-21T06:32:03;101465.13;;;12.39;100.00
19831;BME280;10076;52.008;4.708;2023-04-21T06:34:29;101457.22;;;12.52;100.00
19831;BME280;10076;52.008;4.708;2023-04-21T06:36:54;101458.28;;;12.62;100.00
19831;BME280;10076;52.008;4.708;2023-04-21T06:39:19;101457.44;;;12.74;100.00
19831;BME280;10076;52.008;4.708;2023-04-21T06:41:45;101458.16;;;12.63;100.00
19831;BME280;10076;52.008;4.708;2023-04-21T06:44:10;101458.38;;;12.73;100.00
19831;BME280;10076;52.008;4.708;2023-04-21T06:46:41;101457.94;;;12.79;100.00
19831;BME280;10076;52.008;4.708;2023-04-21T06:49:09;101452.75;;;12.77;100.00
19831;BME280;10076;52.008;4.708;2023-04-21T06:51:35;101449.94;;;12.93;100.00
19831;BME280;10076;52.008;4.708;2023-04-21T06:54:02;101452.88;;;13.01;100.00
19831;BME280;10076;52.008;4.708;2023-04-21T06:56:28;101448.44;;;13.01;100.00
19831;BME280;10076;52.008;4.708;2023-04-21T06:58:53;101453.28;;;12.82;100.00
19831;BME280;10076;52.008;4.708;2023-04-21T07:01:18;101455.66;;;12.87;100.00
19831;BME280;10076;52.008;4.708;2023-04-21T07:03:43;101449.47;;;12.86;100.00
19831;BME280;10076;52.008;4.708;2023-04-21T07:06:09;101451.41;;;12.97;100.00
19831;BME280;10076;52.008;4.708;2023-04-21T07:08:35;101443.88;;;12.78;100.00
19831;BME280;10076;52.008;4.708;2023-04-21T07:11:00;101458.47;;;12.84;100.00
19831;BME280;10076;52.008;4.708;2023-04-21T07:13:25;101452.22;;;12.97;100.00
19831;BME280;10076;52.008;4.708;2023-04-21T07:15:51;101446.28;;;13.06;100.00
19831;BME280;10076;52.008;4.708;2023-04-21T07:18:16;101448.41;;;13.13;100.00
19831;BME280;10076;52.008;4.708;2023-04-21T07:20:41;101442.16;;;13.14;100.00
19831;BME280;10076;52.008;4.708;2023-04-21T07:23:07;101442.66;;;13.19;100.00
19831;BME280;10076;52.008;4.708;2023-04-21T07:25:32;101442.88;;;13.16;100.00
19831;BME280;10076;52.008;4.708;2023-04-21T07:27:57;101442.69;;;13.07;100.00
19831;BME280;10076;52.008;4.708;2023-04-21T07:30:23;101448.41;;;13.13;100.00
19831;BME280;10076;52.008;4.708;2023-04-21T07:32:48;101455.47;;;13.25;100.00
19831;BME280;10076;52.008;4.708;2023-04-21T07:35:13;101450.66;;;13.43;100.00
19831;BME280;10076;52.008;4.708;2023-04-21T07:37:39;101445.75;;;13.49;100.00
19831;BME280;10076;52.008;4.708;2023-04-21T07:40:06;101444.84;;;13.61;100.00
19831;BME280;10076;52.008;4.708;2023-04-21T07:42:32;101450.28;;;13.83;100.00
19831;BME280;10076;52.008;4.708;2023-04-21T07:44:57;101450.31;;;13.94;100.00
19831;BME280;10076;52.008;4.708;2023-04-21T07:47:25;101446.63;;;14.07;100.00
19831;BME280;10076;52.008;4.708;2023-04-21T07:49:50;101451.94;;;14.31;100.00
19831;BME280;10076;52.008;4.708;2023-04-21T07:52:15;101455.25;;;14.56;100.00
19831;BME280;10076;52.008;4.708;2023-04-21T07:54:41;101450.56;;;14.59;100.00
19831;BME280;10076;52.008;4.708;2023-04-21T07:57:06;101448.38;;;14.53;100.00
19831;BME280;10076;52.008;4.708;2023-04-21T07:59:32;101443.53;;;14.58;100.00
19831;BME280;10076;52.008;4.708;2023-04-21T08:01:57;101448.75;;;14.71;100.00
19831;BME280;10076;52.008;4.708;2023-04-21T08:04:22;101445.72;;;14.64;100.00
19831;BME280;10076;52.008;4.708;2023-04-21T08:06:48;101442.59;;;14.81;100.00
19831;BME280;10076;52.008;4.708;2023-04-21T08:09:13;101443.06;;;14.97;100.00
19831;BME280;10076;52.008;4.708;2023-04-21T08:11:38;101445.25;;;15.14;100.00
19831;BME280;10076;52.008;4.708;2023-04-21T08:14:03;101437.63;;;15.42;100.00
19831;BME280;10076;52.008;4.708;2023-04-21T08:16:29;101462.72;;;15.71;100.00
19831;BME280;10076;52.008;4.708;2023-04-21T08:18:55;101449.97;;;15.86;100.00
19831;BME280;10076;52.008;4.708;2023-04-21T08:21:20;101456.84;;;15.88;100.00
19831;BME280;10076;52.008;4.708;2023-04-21T08:23:45;101451.75;;;15.96;100.00
19831;BME280;10076;52.008;4.708;2023-04-21T08:26:10;101451.06;;;15.83;100.00
19831;BME280;10076;52.008;4.708;2023-04-21T08:28:36;101445.19;;;16.00;100.00
19831;BME280;10076;52.008;4.708;2023-04-21T08:31:01;101453.19;;;16.31;100.00
19831;BME280;10076;52.008;4.708;2023-04-21T08:33:26;101455.59;;;16.23;100.00
19831;BME280;10076;52.008;4.708;2023-04-21T08:35:52;101444.66;;;16.37;100.00
19831;BME280;10076;52.008;4.708;2023-04-21T08:38:17;101443.41;;;16.41;100.00
19831;BME280;10076;52.008;4.708;2023-04-21T08:40:43;101442.00;;;16.37;100.00
19831;BME280;10076;52.008;4.708;2023-04-21T08:43:08;101448.63;;;16.63;100.00
19831;BME280;10076;52.008;4.708;2023-04-21T08:45:34;101446.72;;;16.74;100.00
19831;BME280;10076;52.008;4.708;2023-04-21T08:48:01;101446.72;;;16.74;100.00
19831;BME280;10076;52.008;4.708;2023-04-21T08:50:29;101435.28;;;16.93;100.00
19831;BME280;10076;52.008;4.708;2023-04-21T08:52:55;101437.69;;;16.96;100.00
19831;BME280;10076;52.008;4.708;2023-04-21T08:55:27;101442.84;;;16.88;100.00
19831;BME280;10076;52.008;4.708;2023-04-21T08:57:52;101432.25;;;17.07;100.00
19831;BME280;10076;52.008;4.708;2023-04-21T09:00:18;101429.16;;;17.02;100.00
19831;BME280;10076;52.008;4.708;2023-04-21T09:02:59;101430.91;;;17.22;100.00
19831;BME280;10076;52.008;4.708;2023-04-21T09:05:27;101428.91;;;17.44;100.00
19831;BME280;10076;52.008;4.708;2023-04-21T09:08:06;101422.34;;;17.67;100.00
19831;BME280;10076;52.008;4.708;2023-04-21T09:10:33;101427.41;;;17.98;100.00
19831;BME280;10076;52.008;4.708;2023-04-21T09:12:59;101434.44;;;17.99;100.00
19831;BME280;10076;52.008;4.708;2023-04-21T09:15:37;101432.91;;;17.87;100.00
19831;BME280;10076;52.008;4.708;2023-04-21T09:18:02;101434.75;;;17.87;100.00
19831;BME280;10076;52.008;4.708;2023-04-21T09:20:28;101431.78;;;17.99;100.00
19831;BME280;10076;52.008;4.708;2023-04-21T09:22:53;101433.31;;;18.01;100.00
19831;BME280;10076;52.008;4.708;2023-04-21T09:25:19;101443.75;;;18.33;100.00
19831;BME280;10076;52.008;4.708;2023-04-21T09:27:45;101431.81;;;18.37;100.00
19831;BME280;10076;52.008;4.708;2023-04-21T09:30:11;101424.41;;;19.13;100.00
19831;BME280;10076;52.008;4.708;2023-04-21T09:32:38;101437.22;;;19.80;100.00
19831;BME280;10076;52.008;4.708;2023-04-21T09:35:07;101426.72;;;20.56;100.00
19831;BME280;10076;52.008;4.708;2023-04-21T09:37:34;101429.84;;;21.36;100.00
19831;BME280;10076;52.008;4.708;2023-04-21T09:39:59;101426.44;;;21.67;100.00
19831;BME280;10076;52.008;4.708;2023-04-21T09:42:29;101426.09;;;21.70;100.00
19831;BME280;10076;52.008;4.708;2023-04-21T09:44:55;101430.63;;;21.54;100.00
19831;BME280;10076;52.008;4.708;2023-04-21T09:47:21;101430.50;;;21.30;100.00
19831;BME280;10076;52.008;4.708;2023-04-21T09:49:52;101424.06;;;21.56;100.00
19831;BME280;10076;52.008;4.708;2023-04-21T09:52:19;101418.03;;;21.62;100.00
19831;BME280;10076;52.008;4.708;2023-04-21T09:54:56;101421.63;;;22.02;100.00
19831;BME280;10076;52.008;4.708;2023-04-21T09:57:25;101421.28;;;22.05;100.00
19831;BME280;10076;52.008;4.708;2023-04-21T09:59:59;101422.66;;;22.17;100.00
19831;BME280;10076;52.008;4.708;2023-04-21T10:02:29;101427.34;;;22.63;100.00
19831;BME280;10076;52.008;4.708;2023-04-21T10:04:54;101416.91;;;22.76;100.00
19831;BME280;10076;52.008;4.708;2023-04-21T10:07:20;101412.66;;;22.73;100.00
19831;BME280;10076;52.008;4.708;2023-04-21T10:09:49;101417.78;;;22.60;100.00
19831;BME280;10076;52.008;4.708;2023-04-21T10:12:16;101419.09;;;22.56;100.00
19831;BME280;10076;52.008;4.708;2023-04-21T10:14:42;101413.22;;;22.69;100.00
19831;BME280;10076;52.008;4.708;2023-04-21T10:17:09;101416.50;;;23.10;100.00
19831;BME280;10076;52.008;4.708;2023-04-21T10:19:36;101407.94;;;23.37;100.00
19831;BME280;10076;52.008;4.708;2023-04-21T10:22:08;101408.16;;;23.58;100.00
19831;BME280;10076;52.008;4.708;2023-04-21T10:24:41;101413.53;;;23.58;100.00
19831;BME280;10076;52.008;4.708;2023-04-21T10:27:11;101412.91;;;23.56;100.00
19831;BME280;10076;52.008;4.708;2023-04-21T10:29:37;101408.56;;;23.77;100.00
19831;BME280;10076;52.008;4.708;2023-04-21T10:32:03;101404.00;;;23.48;100.00
19831;BME280;10076;52.008;4.708;2023-04-21T10:34:34;101400.00;;;23.74;100.00
19831;BME280;10076;52.008;4.708;2023-04-21T10:39:30;101394.00;;;24.09;100.00
19831;BME280;10076;52.008;4.708;2023-04-21T10:42:26;101392.63;;;24.13;100.00
19831;BME280;10076;52.008;4.708;2023-04-21T10:50:23;101381.97;;;24.70;100.00
19831;BME280;10076;52.008;4.708;2023-04-21T10:52:53;101365.00;;;25.19;100.00
19831;BME280;10076;52.008;4.708;2023-04-21T10:55:20;101367.22;;;26.49;99.97
19831;BME280;10076;52.008;4.708;2023-04-21T10:57:46;101368.44;;;26.74;98.31
19831;BME280;10076;52.008;4.708;2023-04-21T11:00:18;101369.38;;;28.00;95.18
19831;BME280;10076;52.008;4.708;2023-04-21T11:02:52;101359.63;;;29.64;83.85
19831;BME280;10076;52.008;4.708;2023-04-21T11:05:17;101364.63;;;30.77;76.58
19831;BME280;10076;52.008;4.708;2023-04-21T11:07:43;101363.25;;;32.50;68.58
19831;BME280;10076;52.008;4.708;2023-04-21T11:10:08;101363.38;;;33.01;58.86
19831;BME280;10076;52.008;4.708;2023-04-21T11:12:39;101361.88;;;33.88;57.20
19831;BME280;10076;52.008;4.708;2023-04-21T11:15:10;101358.34;;;35.24;51.89
19831;BME280;10076;52.008;4.708;2023-04-21T11:17:36;101358.09;;;35.47;48.69
19831;BME280;10076;52.008;4.708;2023-04-21T11:20:07;101337.88;;;34.07;49.04
19831;BME280;10076;52.008;4.708;2023-04-21T11:22:35;101341.75;;;33.39;51.86
19831;BME280;10076;52.008;4.708;2023-04-21T11:25:01;101344.22;;;32.90;49.96
19831;BME280;10076;52.008;4.708;2023-04-21T11:27:28;101323.91;;;32.17;51.86
19831;BME280;10076;52.008;4.708;2023-04-21T11:29:56;101317.97;;;31.79;55.99
19831;BME280;10076;52.008;4.708;2023-04-21T11:32:22;101325.22;;;32.72;52.43
19831;BME280;10076;52.008;4.708;2023-04-21T11:34:48;101328.38;;;33.14;49.34
19831;BME280;10076;52.008;4.708;2023-04-21T11:37:19;101311.56;;;31.85;51.72
19831;BME280;10076;52.008;4.708;2023-04-21T11:39:44;101312.56;;;32.94;50.16
19831;BME280;10076;52.008;4.708;2023-04-21T11:42:10;101315.16;;;33.39;50.74
19831;BME280;10076;52.008;4.708;2023-04-21T11:44:38;101311.06;;;32.75;48.09
19831;BME280;10076;52.008;4.708;2023-04-21T11:47:18;101302.75;;;33.20;52.48
19831;BME280;10076;52.008;4.708;2023-04-21T11:49:45;101297.47;;;33.30;48.25
19831;BME280;10076;52.008;4.708;2023-04-21T11:52:18;101297.03;;;32.48;49.27
19831;BME280;10076;52.008;4.708;2023-04-21T11:54:45;101302.50;;;32.26;48.73
19831;BME280;10076;52.008;4.708;2023-04-21T11:57:10;101303.50;;;33.88;47.73
19831;BME280;10076;52.008;4.708;2023-04-21T11:59:35;101299.09;;;35.86;43.71
19831;BME280;10076;52.008;4.708;2023-04-21T12:02:01;101296.06;;;35.34;42.69
19831;BME280;10076;52.008;4.708;2023-04-21T12:04:26;101285.34;;;33.26;45.07
19831;BME280;10076;52.008;4.708;2023-04-21T12:06:59;101288.13;;;33.43;46.35
19831;BME280;10076;52.008;4.708;2023-04-21T12:09:26;101303.16;;;34.66;44.55
19831;BME280;10076;52.008;4.708;2023-04-21T12:11:54;101303.66;;;36.01;43.42
19831;BME280;10076;52.008;4.708;2023-04-21T12:14:21;101292.31;;;35.93;40.02
19831;BME280;10076;52.008;4.708;2023-04-21T12:16:55;101291.59;;;36.39;41.55
19831;BME280;10076;52.008;4.708;2023-04-21T12:19:41;101276.88;;;35.61;40.92
19831;BME280;10076;52.008;4.708;2023-04-21T12:22:07;101276.75;;;34.28;43.85
19831;BME280;10076;52.008;4.708;2023-04-21T12:24:33;101272.03;;;35.73;41.75
19831;BME280;10076;52.008;4.708;2023-04-21T12:26:59;101280.16;;;37.18;39.92
19831;BME280;10076;52.008;4.708;2023-04-21T12:29:24;101272.84;;;37.63;38.06
19831;BME280;10076;52.008;4.708;2023-04-21T12:31:50;101266.53;;;38.12;37.19
19831;BME280;10076;52.008;4.708;2023-04-21T12:34:15;101271.31;;;39.04;36.06
19831;BME280;10076;52.008;4.708;2023-04-21T12:36:40;101262.13;;;37.91;34.19
19831;BME280;10076;52.008;4.708;2023-04-21T12:39:05;101265.03;;;35.34;37.96
19831;BME280;10076;52.008;4.708;2023-04-21T12:41:31;101252.66;;;34.67;38.22
19831;BME280;10076;52.008;4.708;2023-04-21T12:43:58;101248.59;;;33.83;39.93